Clearlake, California
Current Conditions -  °F | °C
As of 3:53 PM on Friday 24 Oct 2014 (Local Time) from KSTS Reporting Station
Scattered Clouds Scattered Clouds  
Wind Chill: 69°   Ceiling: Unl
Heat Index: 69°   Visibility: 10mi
Dew Point: 56°   Wind: 12mph
Humidity: 63%   Direction: 230°SW
Pressure: 29.88"   Gusts: 18mph
Location:  38.95°N, 122.62°W
Report Text: KSTS 242253Z 23010G16KT 10SM SCT035 SCT050 21/13 A2988 RMK AO2 SLP112 T02060133
Loading
Personal Weather Stations






























Interactive Weather Map
Tropical Storm Tracking
New forecast layout! Learn more

10-Day Weather Forecast

Advertisements
Track Severe Weather on mobile